sensor_id;sensor_type;location;lat;lon;timestamp;P1;durP1;ratioP1;P2;durP2;ratioP2
15889;SDS011;8043;49.388;12.128;2023-09-30T00:01:13;17.85;;;5.97;;
15889;SDS011;8043;49.388;12.128;2023-09-30T00:06:13;23.65;;;6.08;;
15889;SDS011;8043;49.388;12.128;2023-09-30T00:11:16;20.08;;;5.30;;
15889;SDS011;8043;49.388;12.128;2023-09-30T00:16:19;28.07;;;6.40;;
15889;SDS011;8043;49.388;12.128;2023-09-30T00:26:23;27.27;;;5.35;;
15889;SDS011;8043;49.388;12.128;2023-09-30T00:31:26;31.85;;;5.95;;
15889;SDS011;8043;49.388;12.128;2023-09-30T00:41:30;18.98;;;5.50;;
15889;SDS011;8043;49.388;12.128;2023-09-30T00:46:37;27.48;;;5.53;;
15889;SDS011;8043;49.388;12.128;2023-09-30T00:51:42;21.70;;;5.17;;
15889;SDS011;8043;49.388;12.128;2023-09-30T00:56:45;23.90;;;5.05;;
15889;SDS011;8043;49.388;12.128;2023-09-30T01:01:48;25.77;;;6.17;;
15889;SDS011;8043;49.388;12.128;2023-09-30T01:06:51;20.82;;;5.10;;
15889;SDS011;8043;49.388;12.128;2023-09-30T01:16:55;17.27;;;5.22;;
15889;SDS011;8043;49.388;12.128;2023-09-30T01:21:58;25.02;;;5.10;;
15889;SDS011;8043;49.388;12.128;2023-09-30T01:27:01;18.90;;;5.12;;
15889;SDS011;8043;49.388;12.128;2023-09-30T01:32:05;25.65;;;5.70;;
15889;SDS011;8043;49.388;12.128;2023-09-30T01:37:10;19.92;;;5.12;;
15889;SDS011;8043;49.388;12.128;2023-09-30T01:42:13;24.35;;;5.25;;
15889;SDS011;8043;49.388;12.128;2023-09-30T01:47:16;23.35;;;5.42;;
15889;SDS011;8043;49.388;12.128;2023-09-30T01:52:18;27.52;;;5.97;;
15889;SDS011;8043;49.388;12.128;2023-09-30T01:57:21;15.88;;;5.25;;
15889;SDS011;8043;49.388;12.128;2023-09-30T02:02:23;17.52;;;6.53;;
15889;SDS011;8043;49.388;12.128;2023-09-30T02:07:27;20.85;;;5.00;;
15889;SDS011;8043;49.388;12.128;2023-09-30T02:12:30;18.52;;;5.20;;
15889;SDS011;8043;49.388;12.128;2023-09-30T02:17:32;23.60;;;6.05;;
15889;SDS011;8043;49.388;12.128;2023-09-30T02:22:35;18.42;;;5.62;;
15889;SDS011;8043;49.388;12.128;2023-09-30T02:27:41;21.60;;;4.75;;
15889;SDS011;8043;49.388;12.128;2023-09-30T02:32:43;16.10;;;4.65;;
15889;SDS011;8043;49.388;12.128;2023-09-30T02:37:47;29.92;;;5.95;;
15889;SDS011;8043;49.388;12.128;2023-09-30T02:42:53;17.50;;;4.80;;
15889;SDS011;8043;49.388;12.128;2023-09-30T02:47:56;24.10;;;4.87;;
15889;SDS011;8043;49.388;12.128;2023-09-30T02:58:01;15.58;;;4.35;;
15889;SDS011;8043;49.388;12.128;2023-09-30T03:03:05;21.50;;;4.12;;
15889;SDS011;8043;49.388;12.128;2023-09-30T03:08:07;19.40;;;4.95;;
15889;SDS011;8043;49.388;12.128;2023-09-30T03:13:10;13.35;;;3.83;;
15889;SDS011;8043;49.388;12.128;2023-09-30T03:18:13;19.05;;;3.50;;
15889;SDS011;8043;49.388;12.128;2023-09-30T03:23:17;11.28;;;3.40;;
15889;SDS011;8043;49.388;12.128;2023-09-30T03:28:20;20.17;;;3.25;;
15889;SDS011;8043;49.388;12.128;2023-09-30T03:33:22;10.32;;;3.00;;
15889;SDS011;8043;49.388;12.128;2023-09-30T03:38:27;14.07;;;2.72;;
15889;SDS011;8043;49.388;12.128;2023-09-30T03:48:31;7.55;;;2.50;;
15889;SDS011;8043;49.388;12.128;2023-09-30T03:53:35;8.85;;;2.42;;
15889;SDS011;8043;49.388;12.128;2023-09-30T03:58:39;8.13;;;2.58;;
15889;SDS011;8043;49.388;12.128;2023-09-30T04:03:43;12.63;;;3.27;;
15889;SDS011;8043;49.388;12.128;2023-09-30T04:08:53;13.20;;;2.98;;
15889;SDS011;8043;49.388;12.128;2023-09-30T04:13:55;5.22;;;2.33;;
15889;SDS011;8043;49.388;12.128;2023-09-30T04:18:57;10.78;;;3.02;;
15889;SDS011;8043;49.388;12.128;2023-09-30T04:24:01;11.12;;;2.60;;
15889;SDS011;8043;49.388;12.128;2023-09-30T04:29:04;9.68;;;3.02;;
15889;SDS011;8043;49.388;12.128;2023-09-30T04:34:08;16.00;;;3.20;;
15889;SDS011;8043;49.388;12.128;2023-09-30T04:39:11;9.05;;;3.12;;
15889;SDS011;8043;49.388;12.128;2023-09-30T04:49:15;14.40;;;3.33;;
15889;SDS011;8043;49.388;12.128;2023-09-30T04:54:19;14.25;;;3.60;;
15889;SDS011;8043;49.388;12.128;2023-09-30T04:59:22;13.83;;;4.10;;
15889;SDS011;8043;49.388;12.128;2023-09-30T05:04:25;11.48;;;3.75;;
15889;SDS011;8043;49.388;12.128;2023-09-30T05:09:29;15.95;;;3.92;;
15889;SDS011;8043;49.388;12.128;2023-09-30T05:14:32;14.90;;;3.67;;
15889;SDS011;8043;49.388;12.128;2023-09-30T05:19:37;20.37;;;4.28;;
15889;SDS011;8043;49.388;12.128;2023-09-30T05:24:39;12.23;;;4.25;;
15889;SDS011;8043;49.388;12.128;2023-09-30T05:29:42;14.30;;;3.58;;
15889;SDS011;8043;49.388;12.128;2023-09-30T05:39:46;13.32;;;3.55;;
15889;SDS011;8043;49.388;12.128;2023-09-30T05:44:52;10.70;;;4.47;;
15889;SDS011;8043;49.388;12.128;2023-09-30T05:49:54;18.07;;;4.12;;
15889;SDS011;8043;49.388;12.128;2023-09-30T06:00:03;11.15;;;3.37;;
15889;SDS011;8043;49.388;12.128;2023-09-30T06:05:14;6.78;;;2.70;;
15889;SDS011;8043;49.388;12.128;2023-09-30T06:10:19;9.95;;;2.58;;
15889;SDS011;8043;49.388;12.128;2023-09-30T06:20:25;15.65;;;3.35;;
15889;SDS011;8043;49.388;12.128;2023-09-30T06:25:30;8.20;;;2.92;;
15889;SDS011;8043;49.388;12.128;2023-09-30T06:30:34;8.88;;;3.35;;
15889;SDS011;8043;49.388;12.128;2023-09-30T06:35:37;9.55;;;3.27;;
15889;SDS011;8043;49.388;12.128;2023-09-30T06:40:43;8.70;;;3.17;;
15889;SDS011;8043;49.388;12.128;2023-09-30T06:45:47;10.90;;;3.27;;
15889;SDS011;8043;49.388;12.128;2023-09-30T06:55:53;12.55;;;3.30;;
15889;SDS011;8043;49.388;12.128;2023-09-30T07:00:55;7.75;;;1.55;;
15889;SDS011;8043;49.388;12.128;2023-09-30T07:05:58;1.40;;;0.85;;
15889;SDS011;8043;49.388;12.128;2023-09-30T07:11:01;1.70;;;0.68;;
15889;SDS011;8043;49.388;12.128;2023-09-30T07:16:05;0.50;;;0.42;;
15889;SDS011;8043;49.388;12.128;2023-09-30T07:21:07;1.27;;;0.53;;
15889;SDS011;8043;49.388;12.128;2023-09-30T07:26:10;1.77;;;0.90;;
15889;SDS011;8043;49.388;12.128;2023-09-30T07:31:13;0.40;;;0.40;;
15889;SDS011;8043;49.388;12.128;2023-09-30T07:36:17;0.55;;;0.55;;
15889;SDS011;8043;49.388;12.128;2023-09-30T07:41:20;1.90;;;0.57;;
15889;SDS011;8043;49.388;12.128;2023-09-30T07:46:22;1.12;;;0.85;;
15889;SDS011;8043;49.388;12.128;2023-09-30T07:51:25;0.88;;;0.62;;
15889;SDS011;8043;49.388;12.128;2023-09-30T08:01:29;5.08;;;1.45;;
15889;SDS011;8043;49.388;12.128;2023-09-30T08:06:34;0.93;;;0.85;;
15889;SDS011;8043;49.388;12.128;2023-09-30T08:11:36;3.02;;;0.55;;
15889;SDS011;8043;49.388;12.128;2023-09-30T08:16:39;0.55;;;0.55;;
15889;SDS011;8043;49.388;12.128;2023-09-30T08:21:43;3.25;;;0.68;;
15889;SDS011;8043;49.388;12.128;2023-09-30T08:31:47;0.68;;;0.68;;
15889;SDS011;8043;49.388;12.128;2023-09-30T08:36:51;2.12;;;0.72;;
15889;SDS011;8043;49.388;12.128;2023-09-30T08:41:54;0.80;;;0.80;;
15889;SDS011;8043;49.388;12.128;2023-09-30T08:47:00;3.75;;;1.10;;
15889;SDS011;8043;49.388;12.128;2023-09-30T08:52:04;0.82;;;0.70;;
15889;SDS011;8043;49.388;12.128;2023-09-30T08:57:08;1.27;;;0.72;;
15889;SDS011;8043;49.388;12.128;2023-09-30T09:02:11;1.22;;;1.10;;
15889;SDS011;8043;49.388;12.128;2023-09-30T09:07:13;1.07;;;0.90;;
15889;SDS011;8043;49.388;12.128;2023-09-30T09:12:19;0.78;;;0.65;;
15889;SDS011;8043;49.388;12.128;2023-09-30T09:17:22;0.57;;;0.57;;
15889;SDS011;8043;49.388;12.128;2023-09-30T09:22:25;0.88;;;0.62;;
15889;SDS011;8043;49.388;12.128;2023-09-30T09:28:03;3.72;;;0.50;;
15889;SDS011;8043;49.388;12.128;2023-09-30T09:33:05;5.35;;;0.60;;
15889;SDS011;8043;49.388;12.128;2023-09-30T09:38:08;1.82;;;1.00;;
15889;SDS011;8043;49.388;12.128;2023-09-30T09:43:10;1.50;;;0.75;;
15889;SDS011;8043;49.388;12.128;2023-09-30T09:53:16;0.60;;;0.60;;
15889;SDS011;8043;49.388;12.128;2023-09-30T09:58:19;3.65;;;0.90;;
15889;SDS011;8043;49.388;12.128;2023-09-30T10:03:22;0.93;;;0.78;;
15889;SDS011;8043;49.388;12.128;2023-09-30T10:08:30;1.40;;;1.22;;
15889;SDS011;8043;49.388;12.128;2023-09-30T10:13:57;1.85;;;1.20;;
15889;SDS011;8043;49.388;12.128;2023-09-30T10:19:08;1.80;;;1.30;;
15889;SDS011;8043;49.388;12.128;2023-09-30T10:29:44;2.47;;;1.40;;
15889;SDS011;8043;49.388;12.128;2023-09-30T10:34:50;2.55;;;1.27;;
15889;SDS011;8043;49.388;12.128;2023-09-30T10:39:54;2.05;;;1.52;;
15889;SDS011;8043;49.388;12.128;2023-09-30T10:45:00;4.47;;;1.95;;
15889;SDS011;8043;49.388;12.128;2023-09-30T10:50:04;2.83;;;1.57;;
15889;SDS011;8043;49.388;12.128;2023-09-30T10:55:10;4.90;;;1.95;;
15889;SDS011;8043;49.388;12.128;2023-09-30T11:05:16;4.22;;;1.90;;
15889;SDS011;8043;49.388;12.128;2023-09-30T11:10:21;7.40;;;2.30;;
15889;SDS011;8043;49.388;12.128;2023-09-30T11:15:24;7.40;;;2.17;;
15889;SDS011;8043;49.388;12.128;2023-09-30T11:20:28;5.60;;;2.20;;
15889;SDS011;8043;49.388;12.128;2023-09-30T11:25:34;4.22;;;1.95;;
15889;SDS011;8043;49.388;12.128;2023-09-30T11:30:58;7.08;;;2.10;;
15889;SDS011;8043;49.388;12.128;2023-09-30T11:36:03;9.50;;;2.30;;
15889;SDS011;8043;49.388;12.128;2023-09-30T11:41:06;5.85;;;2.02;;
15889;SDS011;8043;49.388;12.128;2023-09-30T11:46:10;8.65;;;2.70;;
15889;SDS011;8043;49.388;12.128;2023-09-30T11:51:16;6.80;;;2.62;;
15889;SDS011;8043;49.388;12.128;2023-09-30T11:56:18;5.78;;;1.70;;
15889;SDS011;8043;49.388;12.128;2023-09-30T12:06:22;6.92;;;2.08;;
15889;SDS011;8043;49.388;12.128;2023-09-30T12:11:26;3.00;;;1.67;;
15889;SDS011;8043;49.388;12.128;2023-09-30T12:16:29;3.67;;;1.20;;
15889;SDS011;8043;49.388;12.128;2023-09-30T12:21:33;8.55;;;2.12;;
15889;SDS011;8043;49.388;12.128;2023-09-30T12:26:37;5.42;;;2.15;;
15889;SDS011;8043;49.388;12.128;2023-09-30T12:31:41;4.47;;;2.70;;
15889;SDS011;8043;49.388;12.128;2023-09-30T12:36:46;2.42;;;1.52;;
15889;SDS011;8043;49.388;12.128;2023-09-30T12:41:50;4.53;;;1.62;;
15889;SDS011;8043;49.388;12.128;2023-09-30T12:46:53;4.83;;;1.80;;
15889;SDS011;8043;49.388;12.128;2023-09-30T12:51:56;5.55;;;1.62;;
15889;SDS011;8043;49.388;12.128;2023-09-30T12:57:00;2.15;;;1.02;;
15889;SDS011;8043;49.388;12.128;2023-09-30T13:02:02;4.55;;;1.98;;
15889;SDS011;8043;49.388;12.128;2023-09-30T13:07:06;4.28;;;1.50;;
15889;SDS011;8043;49.388;12.128;2023-09-30T13:12:09;5.10;;;1.40;;
15889;SDS011;8043;49.388;12.128;2023-09-30T13:17:12;4.33;;;1.42;;
15889;SDS011;8043;49.388;12.128;2023-09-30T13:22:15;3.15;;;1.45;;
15889;SDS011;8043;49.388;12.128;2023-09-30T13:27:20;1.92;;;1.30;;
15889;SDS011;8043;49.388;12.128;2023-09-30T13:32:22;2.95;;;1.57;;
15889;SDS011;8043;49.388;12.128;2023-09-30T13:37:25;3.20;;;1.22;;
15889;SDS011;8043;49.388;12.128;2023-09-30T13:42:30;5.00;;;1.50;;
15889;SDS011;8043;49.388;12.128;2023-09-30T13:47:33;4.85;;;1.90;;
15889;SDS011;8043;49.388;12.128;2023-09-30T13:52:36;3.25;;;1.07;;
15889;SDS011;8043;49.388;12.128;2023-09-30T13:57:39;2.90;;;1.60;;
15889;SDS011;8043;49.388;12.128;2023-09-30T14:02:41;5.53;;;2.08;;
15889;SDS011;8043;49.388;12.128;2023-09-30T14:07:44;3.50;;;1.52;;
15889;SDS011;8043;49.388;12.128;2023-09-30T14:12:47;4.00;;;1.98;;
15889;SDS011;8043;49.388;12.128;2023-09-30T14:22:51;2.95;;;1.32;;
15889;SDS011;8043;49.388;12.128;2023-09-30T14:27:55;5.67;;;1.75;;
15889;SDS011;8043;49.388;12.128;2023-09-30T14:32:59;4.92;;;1.70;;
15889;SDS011;8043;49.388;12.128;2023-09-30T14:38:05;3.55;;;1.82;;
15889;SDS011;8043;49.388;12.128;2023-09-30T14:43:09;3.65;;;1.27;;
15889;SDS011;8043;49.388;12.128;2023-09-30T14:53:14;4.83;;;1.95;;
15889;SDS011;8043;49.388;12.128;2023-09-30T14:58:17;3.75;;;1.70;;
15889;SDS011;8043;49.388;12.128;2023-09-30T15:03:20;2.50;;;1.57;;
15889;SDS011;8043;49.388;12.128;2023-09-30T15:08:25;5.78;;;1.85;;
15889;SDS011;8043;49.388;12.128;2023-09-30T15:13:28;7.40;;;1.98;;
15889;SDS011;8043;49.388;12.128;2023-09-30T15:18:31;2.52;;;1.57;;
15889;SDS011;8043;49.388;12.128;2023-09-30T15:28:36;4.47;;;2.17;;
15889;SDS011;8043;49.388;12.128;2023-09-30T15:38:40;5.53;;;2.37;;
15889;SDS011;8043;49.388;12.128;2023-09-30T15:43:43;4.17;;;1.57;;
15889;SDS011;8043;49.388;12.128;2023-09-30T15:48:45;3.58;;;1.70;;
15889;SDS011;8043;49.388;12.128;2023-09-30T15:53:47;7.87;;;1.60;;
15889;SDS011;8043;49.388;12.128;2023-09-30T16:03:52;3.33;;;1.67;;
15889;SDS011;8043;49.388;12.128;2023-09-30T16:08:55;9.70;;;1.75;;
15889;SDS011;8043;49.388;12.128;2023-09-30T16:13:57;8.43;;;2.15;;
15889;SDS011;8043;49.388;12.128;2023-09-30T16:19:00;5.75;;;2.27;;
15889;SDS011;8043;49.388;12.128;2023-09-30T16:24:03;9.85;;;2.60;;
15889;SDS011;8043;49.388;12.128;2023-09-30T16:29:06;11.97;;;2.50;;
15889;SDS011;8043;49.388;12.128;2023-09-30T16:34:10;5.08;;;1.90;;
15889;SDS011;8043;49.388;12.128;2023-09-30T16:39:12;3.15;;;2.08;;
15889;SDS011;8043;49.388;12.128;2023-09-30T16:44:15;4.80;;;2.50;;
15889;SDS011;8043;49.388;12.128;2023-09-30T16:49:17;3.83;;;1.82;;
15889;SDS011;8043;49.388;12.128;2023-09-30T16:54:20;4.47;;;2.20;;
15889;SDS011;8043;49.388;12.128;2023-09-30T16:59:22;4.10;;;2.10;;
15889;SDS011;8043;49.388;12.128;2023-09-30T17:04:28;9.75;;;3.10;;
15889;SDS011;8043;49.388;12.128;2023-09-30T17:09:30;7.92;;;2.87;;
15889;SDS011;8043;49.388;12.128;2023-09-30T17:14:33;6.12;;;2.25;;
15889;SDS011;8043;49.388;12.128;2023-09-30T17:19:36;10.08;;;2.22;;
15889;SDS011;8043;49.388;12.128;2023-09-30T17:24:38;3.95;;;1.98;;
15889;SDS011;8043;49.388;12.128;2023-09-30T17:29:43;4.05;;;2.20;;
15889;SDS011;8043;49.388;12.128;2023-09-30T17:34:46;8.88;;;2.60;;
15889;SDS011;8043;49.388;12.128;2023-09-30T17:39:48;5.92;;;3.25;;
15889;SDS011;8043;49.388;12.128;2023-09-30T17:44:52;6.83;;;2.58;;
15889;SDS011;8043;49.388;12.128;2023-09-30T17:49:55;7.08;;;3.02;;
15889;SDS011;8043;49.388;12.128;2023-09-30T17:55:00;4.40;;;2.33;;
15889;SDS011;8043;49.388;12.128;2023-09-30T18:00:05;5.12;;;2.52;;
15889;SDS011;8043;49.388;12.128;2023-09-30T18:05:08;9.38;;;2.52;;
15889;SDS011;8043;49.388;12.128;2023-09-30T18:10:14;3.77;;;2.05;;
15889;SDS011;8043;49.388;12.128;2023-09-30T18:15:21;8.67;;;2.17;;
15889;SDS011;8043;49.388;12.128;2023-09-30T18:20:24;9.28;;;3.33;;
15889;SDS011;8043;49.388;12.128;2023-09-30T18:25:26;11.22;;;3.05;;
15889;SDS011;8043;49.388;12.128;2023-09-30T18:30:30;5.50;;;2.42;;
15889;SDS011;8043;49.388;12.128;2023-09-30T18:35:37;7.80;;;2.20;;
15889;SDS011;8043;49.388;12.128;2023-09-30T18:40:41;7.10;;;2.90;;
15889;SDS011;8043;49.388;12.128;2023-09-30T18:45:46;6.00;;;2.35;;
15889;SDS011;8043;49.388;12.128;2023-09-30T18:50:49;7.62;;;2.40;;
15889;SDS011;8043;49.388;12.128;2023-09-30T18:55:52;6.42;;;2.85;;
15889;SDS011;8043;49.388;12.128;2023-09-30T19:00:55;11.35;;;2.47;;
15889;SDS011;8043;49.388;12.128;2023-09-30T19:05:57;5.70;;;2.25;;
15889;SDS011;8043;49.388;12.128;2023-09-30T19:11:00;8.48;;;2.80;;
15889;SDS011;8043;49.388;12.128;2023-09-30T19:16:04;3.95;;;2.35;;
15889;SDS011;8043;49.388;12.128;2023-09-30T19:21:08;3.97;;;2.27;;
15889;SDS011;8043;49.388;12.128;2023-09-30T19:26:11;4.58;;;2.52;;
15889;SDS011;8043;49.388;12.128;2023-09-30T19:31:15;8.25;;;3.58;;
15889;SDS011;8043;49.388;12.128;2023-09-30T19:36:18;6.92;;;3.22;;
15889;SDS011;8043;49.388;12.128;2023-09-30T19:41:20;6.50;;;2.90;;
15889;SDS011;8043;49.388;12.128;2023-09-30T19:46:24;5.28;;;2.75;;
15889;SDS011;8043;49.388;12.128;2023-09-30T19:51:47;4.87;;;2.35;;
15889;SDS011;8043;49.388;12.128;2023-09-30T19:56:50;10.93;;;3.30;;
15889;SDS011;8043;49.388;12.128;2023-09-30T20:06:55;3.72;;;1.92;;
15889;SDS011;8043;49.388;12.128;2023-09-30T20:11:57;5.28;;;2.95;;
15889;SDS011;8043;49.388;12.128;2023-09-30T20:17:01;5.95;;;2.47;;
15889;SDS011;8043;49.388;12.128;2023-09-30T20:22:04;4.50;;;2.15;;
15889;SDS011;8043;49.388;12.128;2023-09-30T20:27:07;4.17;;;2.10;;
15889;SDS011;8043;49.388;12.128;2023-09-30T20:32:10;4.85;;;2.60;;
15889;SDS011;8043;49.388;12.128;2023-09-30T20:37:15;7.75;;;3.75;;
15889;SDS011;8043;49.388;12.128;2023-09-30T20:42:21;8.05;;;3.95;;
15889;SDS011;8043;49.388;12.128;2023-09-30T20:47:23;10.35;;;3.65;;
15889;SDS011;8043;49.388;12.128;2023-09-30T20:52:26;7.70;;;2.17;;
15889;SDS011;8043;49.388;12.128;2023-09-30T20:57:28;4.67;;;2.47;;
15889;SDS011;8043;49.388;12.128;2023-09-30T21:02:31;4.92;;;2.40;;
15889;SDS011;8043;49.388;12.128;2023-09-30T21:07:34;3.70;;;1.75;;
15889;SDS011;8043;49.388;12.128;2023-09-30T21:12:36;2.22;;;1.77;;
15889;SDS011;8043;49.388;12.128;2023-09-30T21:17:39;11.22;;;3.10;;
15889;SDS011;8043;49.388;12.128;2023-09-30T21:22:43;4.40;;;2.40;;
15889;SDS011;8043;49.388;12.128;2023-09-30T21:27:48;6.62;;;2.05;;
15889;SDS011;8043;49.388;12.128;2023-09-30T21:32:51;4.22;;;2.22;;
15889;SDS011;8043;49.388;12.128;2023-09-30T21:37:54;4.40;;;2.15;;
15889;SDS011;8043;49.388;12.128;2023-09-30T21:48:02;3.62;;;1.90;;
15889;SDS011;8043;49.388;12.128;2023-09-30T21:53:05;4.15;;;2.55;;
15889;SDS011;8043;49.388;12.128;2023-09-30T21:58:09;5.33;;;2.47;;
15889;SDS011;8043;49.388;12.128;2023-09-30T22:03:13;4.33;;;2.15;;
15889;SDS011;8043;49.388;12.128;2023-09-30T22:08:19;5.20;;;2.33;;
15889;SDS011;8043;49.388;12.128;2023-09-30T22:13:25;4.33;;;2.52;;
15889;SDS011;8043;49.388;12.128;2023-09-30T22:18:28;3.25;;;2.05;;
15889;SDS011;8043;49.388;12.128;2023-09-30T22:23:31;6.42;;;3.05;;
15889;SDS011;8043;49.388;12.128;2023-09-30T22:33:35;5.83;;;2.77;;
15889;SDS011;8043;49.388;12.128;2023-09-30T22:38:38;7.35;;;2.85;;
15889;SDS011;8043;49.388;12.128;2023-09-30T22:43:42;4.05;;;2.20;;
15889;SDS011;8043;49.388;12.128;2023-09-30T22:48:45;4.17;;;2.15;;
15889;SDS011;8043;49.388;12.128;2023-09-30T22:58:50;4.80;;;1.85;;
15889;SDS011;8043;49.388;12.128;2023-09-30T23:03:53;2.77;;;1.82;;
15889;SDS011;8043;49.388;12.128;2023-09-30T23:08:56;4.47;;;2.05;;
15889;SDS011;8043;49.388;12.128;2023-09-30T23:13:58;7.42;;;2.85;;
15889;SDS011;8043;49.388;12.128;2023-09-30T23:19:01;6.35;;;2.30;;
15889;SDS011;8043;49.388;12.128;2023-09-30T23:24:05;3.60;;;2.50;;
15889;SDS011;8043;49.388;12.128;2023-09-30T23:29:08;5.42;;;2.65;;
15889;SDS011;8043;49.388;12.128;2023-09-30T23:34:12;6.12;;;2.50;;
15889;SDS011;8043;49.388;12.128;2023-09-30T23:39:15;5.17;;;2.67;;
15889;SDS011;8043;49.388;12.128;2023-09-30T23:44:20;6.58;;;3.55;;
15889;SDS011;8043;49.388;12.128;2023-09-30T23:49:23;7.13;;;3.17;;
15889;SDS011;8043;49.388;12.128;2023-09-30T23:54:28;5.40;;;2.80;;
15889;SDS011;8043;49.388;12.128;2023-09-30T23:59:31;10.75;;;3.17;;
